createdAt,value
2019-05-23T00:02:12.932Z,16.89
2019-05-23T00:05:24.000Z,16.88
2019-05-23T00:08:18.457Z,16.88
2019-05-23T00:10:56.022Z,16.87
2019-05-23T00:13:57.721Z,16.90
2019-05-23T00:16:28.769Z,16.89
2019-05-23T00:19:00.987Z,16.81
2019-05-23T00:21:32.987Z,16.83
2019-05-23T00:24:05.196Z,16.80
2019-05-23T00:26:36.126Z,16.80
2019-05-23T00:29:10.467Z,16.81
2019-05-23T00:31:46.116Z,16.80
2019-05-23T00:34:16.812Z,16.81
2019-05-23T00:36:48.509Z,16.73
2019-05-23T00:39:18.648Z,16.79
2019-05-23T00:41:50.756Z,16.77
2019-05-23T00:44:21.157Z,16.77
2019-05-23T00:46:53.467Z,16.74
2019-05-23T00:49:24.787Z,16.68
2019-05-23T00:51:55.296Z,16.71
2019-05-23T00:54:26.065Z,16.73
2019-05-23T00:56:58.701Z,16.72
2019-05-23T00:59:29.737Z,16.69
2019-05-23T01:02:01.228Z,16.70
2019-05-23T01:04:32.125Z,16.72
2019-05-23T01:07:02.778Z,15.77
2019-05-23T01:09:34.522Z,16.74
2019-05-23T01:12:05.482Z,16.74
2019-05-23T01:14:36.211Z,16.74
2019-05-23T01:17:07.299Z,16.72
2019-05-23T01:19:37.843Z,16.69
2019-05-23T01:22:10.084Z,16.70
2019-05-23T01:24:42.082Z,16.73
2019-05-23T01:27:12.982Z,16.72
2019-05-23T01:29:50.135Z,16.69
2019-05-23T01:32:37.608Z,16.70
2019-05-23T01:35:10.063Z,16.68
2019-05-23T01:37:41.356Z,16.65
2019-05-23T01:40:13.583Z,16.62
2019-05-23T01:42:43.703Z,16.64
2019-05-23T01:45:16.560Z,16.64
2019-05-23T01:47:49.337Z,16.63
2019-05-23T01:50:25.330Z,16.64
2019-05-23T01:52:56.112Z,16.64
2019-05-23T01:55:26.336Z,16.61
2019-05-23T01:57:57.259Z,16.55
2019-05-23T02:00:29.176Z,16.55
2019-05-23T02:03:01.094Z,16.54
2019-05-23T02:05:31.976Z,16.53
2019-05-23T02:08:02.286Z,16.47
2019-05-23T02:10:32.605Z,16.43
2019-05-23T02:13:03.935Z,16.44
2019-05-23T02:15:35.095Z,16.38
2019-05-23T02:18:05.900Z,16.35
2019-05-23T02:20:37.174Z,16.37
2019-05-23T02:23:08.106Z,16.39
2019-05-23T02:25:39.868Z,16.41
2019-05-23T02:28:10.161Z,16.38
2019-05-23T02:30:41.279Z,16.37
2019-05-23T02:33:14.614Z,16.36
2019-05-23T02:35:45.230Z,16.31
2019-05-23T02:41:33.903Z,16.38
2019-05-23T02:44:08.959Z,16.39
2019-05-23T02:47:16.207Z,16.42
2019-05-23T02:49:51.143Z,16.49
2019-05-23T02:52:31.463Z,16.56
2019-05-23T02:55:02.407Z,16.54
2019-05-23T02:57:35.232Z,16.56
2019-05-23T03:00:52.093Z,16.59
2019-05-23T03:03:09.282Z,16.56
2019-05-23T03:05:40.061Z,16.59
2019-05-23T03:08:12.788Z,16.60
2019-05-23T03:10:57.772Z,16.58
2019-05-23T03:13:32.461Z,16.55
2019-05-23T03:16:05.324Z,16.57
2019-05-23T03:18:40.417Z,16.51
2019-05-23T03:21:12.335Z,16.47
2019-05-23T03:23:43.662Z,16.34
2019-05-23T03:26:48.200Z,16.31
2019-05-23T03:29:19.148Z,16.15
2019-05-23T03:32:04.623Z,16.03
2019-05-23T03:34:37.550Z,15.96
2019-05-23T03:37:07.971Z,15.67
2019-05-23T03:39:38.446Z,15.52
2019-05-23T03:42:10.775Z,15.50
2019-05-23T03:44:40.912Z,15.43
2019-05-23T03:47:15.931Z,15.52
2019-05-23T03:49:47.769Z,15.43
2019-05-23T03:52:19.148Z,15.42
2019-05-23T03:54:50.391Z,15.31
2019-05-23T03:57:25.305Z,15.35
2019-05-23T03:59:53.072Z,15.37
2019-05-23T04:02:26.227Z,15.33
2019-05-23T04:04:57.376Z,15.30
2019-05-23T04:07:27.713Z,15.30
2019-05-23T04:09:58.319Z,15.31
2019-05-23T04:12:28.528Z,15.37
2019-05-23T04:14:58.838Z,15.42
2019-05-23T04:17:29.452Z,15.42
2019-05-23T04:20:00.252Z,15.43
2019-05-23T04:22:30.652Z,15.39
2019-05-23T04:25:02.378Z,15.47
2019-05-23T04:27:32.606Z,15.41
2019-05-23T04:30:02.757Z,15.43
2019-05-23T04:32:34.871Z,15.41
2019-05-23T04:35:07.168Z,15.32
2019-05-23T04:37:37.320Z,15.18
2019-05-23T04:40:10.182Z,15.14
2019-05-23T04:42:40.531Z,15.06
2019-05-23T04:45:12.141Z,15.00
2019-05-23T04:47:42.462Z,14.76
2019-05-23T04:50:16.293Z,14.77
2019-05-23T04:52:48.277Z,14.83
2019-05-23T04:55:18.569Z,14.78
2019-05-23T04:57:48.695Z,14.78
2019-05-23T05:00:20.831Z,14.75
2019-05-23T05:02:51.355Z,14.76
2019-05-23T05:05:23.773Z,14.80
2019-05-23T05:07:53.925Z,14.82
2019-05-23T05:10:26.084Z,14.84
2019-05-23T05:12:56.666Z,14.85
2019-05-23T05:15:26.912Z,14.87
2019-05-23T05:17:57.109Z,14.83
2019-05-23T05:20:27.928Z,14.78
2019-05-23T05:22:58.179Z,14.67
2019-05-23T05:25:29.867Z,14.73
2019-05-23T05:28:00.652Z,14.77
2019-05-23T05:30:31.758Z,14.71
2019-05-23T05:33:02.082Z,14.70
2019-05-23T05:35:33.677Z,14.68
2019-05-23T05:38:03.822Z,14.60
2019-05-23T05:40:34.179Z,14.69
2019-05-23T05:43:04.649Z,14.71
2019-05-23T05:45:34.819Z,14.60
2019-05-23T05:48:06.485Z,14.61
2019-05-23T05:50:37.056Z,14.39
2019-05-23T05:53:07.286Z,14.18
2019-05-23T05:55:37.414Z,14.32
2019-05-23T05:58:07.602Z,14.26
2019-05-23T06:00:42.701Z,14.16
2019-05-23T06:03:12.813Z,14.26
2019-05-23T06:06:01.969Z,14.34
2019-05-23T06:08:34.402Z,14.37
2019-05-23T06:11:04.848Z,14.33
2019-05-23T06:13:35.980Z,14.30
2019-05-23T06:16:06.613Z,14.20
2019-05-23T06:18:37.012Z,14.20
2019-05-23T06:21:07.951Z,14.07
2019-05-23T06:23:38.483Z,13.84
2019-05-23T06:26:08.608Z,13.75
2019-05-23T06:28:40.807Z,13.75
2019-05-23T06:31:11.545Z,13.83
2019-05-23T06:33:41.779Z,13.91
2019-05-23T06:36:13.417Z,13.98
2019-05-23T06:38:44.208Z,14.03
2019-05-23T06:41:14.831Z,13.99
2019-05-23T06:43:46.566Z,14.07
2019-05-23T06:46:16.941Z,14.11
2019-05-23T06:48:47.093Z,14.13
2019-05-23T06:51:17.545Z,14.10
2019-05-23T06:53:47.785Z,14.14
2019-05-23T06:56:18.092Z,14.17
2019-05-23T06:58:48.307Z,14.15
2019-05-23T07:01:18.541Z,14.13
2019-05-23T07:03:49.680Z,13.99
2019-05-23T07:06:22.730Z,13.89
2019-05-23T07:08:54.407Z,13.87
2019-05-23T07:11:25.432Z,13.92
2019-05-23T07:13:56.149Z,13.94
2019-05-23T07:16:26.295Z,14.00
2019-05-23T07:18:56.407Z,13.90
2019-05-23T07:21:27.759Z,13.91
2019-05-23T07:23:58.080Z,13.97
2019-05-23T07:26:28.681Z,13.93
2019-05-23T07:28:58.848Z,13.84
2019-05-23T07:31:28.970Z,13.95
2019-05-23T07:34:02.183Z,13.82
2019-05-23T07:36:31.647Z,13.84
2019-05-23T07:39:01.778Z,13.79
2019-05-23T07:41:32.872Z,13.90
2019-05-23T07:44:04.242Z,13.88
2019-05-23T07:46:34.663Z,13.98
2019-05-23T07:49:04.893Z,14.04
2019-05-23T07:51:35.324Z,14.07
2019-05-23T07:54:22.912Z,14.08
2019-05-23T07:56:53.880Z,14.12
2019-05-23T07:59:24.107Z,14.25
2019-05-23T08:02:05.012Z,14.24
2019-05-23T08:04:35.202Z,14.28
2019-05-23T08:07:06.239Z,14.35
2019-05-23T08:09:36.601Z,14.44
2019-05-23T08:12:06.953Z,14.44
2019-05-23T08:14:37.150Z,14.50
2019-05-23T08:17:07.936Z,14.55
2019-05-23T08:19:49.092Z,14.46
2019-05-23T08:22:09.927Z,14.30
2019-05-23T08:24:40.113Z,14.37
2019-05-23T08:27:10.911Z,14.42
2019-05-23T08:29:41.333Z,14.44
2019-05-23T08:32:13.046Z,14.48
2019-05-23T08:34:43.496Z,14.36
2019-05-23T08:37:14.186Z,14.41
2019-05-23T08:39:45.318Z,14.39
2019-05-23T08:42:15.815Z,14.46
2019-05-23T08:44:46.726Z,14.41
2019-05-23T08:47:17.547Z,14.53
2019-05-23T08:49:47.869Z,14.63
2019-05-23T08:52:18.019Z,14.66
2019-05-23T08:54:49.246Z,14.74
2019-05-23T08:57:19.882Z,14.80
2019-05-23T08:59:50.001Z,14.88
2019-05-23T09:02:20.564Z,14.87
2019-05-23T09:05:04.258Z,14.86
2019-05-23T09:07:23.120Z,14.88
2019-05-23T09:09:54.078Z,14.91
2019-05-23T09:12:24.439Z,15.06
2019-05-23T09:14:55.248Z,15.11
2019-05-23T09:17:25.390Z,15.22
2019-05-23T09:19:55.498Z,15.32
2019-05-23T09:22:25.640Z,15.27
2019-05-23T09:24:55.761Z,15.24
2019-05-23T09:27:26.320Z,15.32
2019-05-23T09:29:56.529Z,15.31
2019-05-23T09:32:26.857Z,15.45
2019-05-23T09:34:57.221Z,15.56
2019-05-23T09:37:27.499Z,15.63
2019-05-23T09:39:58.354Z,15.17
2019-05-23T09:42:28.612Z,15.72
2019-05-23T09:44:58.748Z,15.82
2019-05-23T09:47:29.074Z,15.84
2019-05-23T09:49:59.431Z,15.86
2019-05-23T09:52:30.255Z,15.96
2019-05-23T09:55:00.458Z,16.05
2019-05-23T09:57:30.691Z,16.12
2019-05-23T10:00:00.896Z,16.32
2019-05-23T10:02:32.672Z,16.48
2019-05-23T10:05:02.811Z,16.64
2019-05-23T10:07:32.947Z,16.80
2019-05-23T10:10:03.160Z,16.79
2019-05-23T10:12:33.294Z,17.03
2019-05-23T10:15:03.431Z,17.26
2019-05-23T10:17:33.609Z,17.27
2019-05-23T10:20:04.566Z,17.50
2019-05-23T10:22:34.696Z,17.67
2019-05-23T10:25:06.352Z,17.91
2019-05-23T10:27:36.498Z,18.09
2019-05-23T10:30:08.294Z,18.38
2019-05-23T10:32:39.396Z,18.74
2019-05-23T10:35:10.433Z,19.12
2019-05-23T10:37:40.560Z,19.46
2019-05-23T10:40:11.462Z,19.75
2019-05-23T10:42:41.593Z,19.96
2019-05-23T10:45:12.418Z,20.12
2019-05-23T10:47:42.543Z,20.34
2019-05-23T10:50:12.993Z,20.49
2019-05-23T10:52:43.315Z,20.58
2019-05-23T10:55:14.052Z,20.71
2019-05-23T10:57:44.490Z,20.95
2019-05-23T11:00:17.564Z,20.84
2019-05-23T11:02:48.203Z,21.07
2019-05-23T11:05:18.322Z,21.18
2019-05-23T11:07:48.701Z,21.24
2019-05-23T11:10:21.374Z,21.02
2019-05-23T11:12:51.505Z,20.87
2019-05-23T11:15:21.833Z,20.71
2019-05-23T11:17:53.917Z,20.72
2019-05-23T11:20:24.451Z,20.77
2019-05-23T11:22:54.578Z,20.89
2019-05-23T11:25:26.277Z,21.01
2019-05-23T11:27:57.077Z,21.04
2019-05-23T11:30:50.166Z,21.18
2019-05-23T11:33:20.571Z,21.20
2019-05-23T11:35:51.318Z,21.01
2019-05-23T11:38:23.582Z,21.16
2019-05-23T11:40:54.003Z,21.01
2019-05-23T11:43:24.147Z,20.98
2019-05-23T11:46:10.209Z,20.97
2019-05-23T11:48:40.563Z,21.26
2019-05-23T11:51:10.760Z,21.52
2019-05-23T11:53:40.984Z,21.90
2019-05-23T11:56:11.196Z,22.06
2019-05-23T11:58:41.633Z,22.00
2019-05-23T12:01:20.798Z,22.45
2019-05-23T12:03:54.433Z,22.56
2019-05-23T12:06:26.690Z,22.42
2019-05-23T12:08:57.149Z,22.62
2019-05-23T12:11:27.341Z,22.65
2019-05-23T12:13:57.477Z,22.66
2019-05-23T12:16:28.020Z,22.67
2019-05-23T12:18:58.199Z,22.76
2019-05-23T12:21:28.888Z,22.63
2019-05-23T12:23:59.249Z,22.81
2019-05-23T12:26:29.781Z,23.02
2019-05-23T12:29:00.247Z,23.14
2019-05-23T12:31:30.427Z,23.01
2019-05-23T12:34:00.735Z,22.86
2019-05-23T12:36:31.223Z,22.93
2019-05-23T12:39:02.610Z,22.96
2019-05-23T12:41:33.842Z,22.91
2019-05-23T12:44:03.992Z,22.82
2019-05-23T12:46:34.116Z,23.05
2019-05-23T12:49:29.317Z,23.07
2019-05-23T12:52:01.369Z,23.27
2019-05-23T12:54:32.747Z,23.40
2019-05-23T12:57:04.442Z,23.44
2019-05-23T12:59:35.107Z,23.14
2019-05-23T13:02:08.609Z,23.01
2019-05-23T13:04:39.107Z,22.91
2019-05-23T13:07:10.162Z,22.86
2019-05-23T13:09:40.600Z,22.96
2019-05-23T13:12:10.731Z,22.94
2019-05-23T13:14:40.898Z,22.94
2019-05-23T13:17:11.062Z,22.93
2019-05-23T13:19:41.283Z,22.81
2019-05-23T13:22:12.000Z,22.74
2019-05-23T13:24:52.887Z,22.44
2019-05-23T13:27:14.425Z,22.40
2019-05-23T13:29:44.913Z,22.56
2019-05-23T13:32:15.361Z,22.60
2019-05-23T13:34:45.832Z,22.38
2019-05-23T13:37:17.378Z,22.14
2019-05-23T13:39:47.792Z,21.26
2019-05-23T13:42:17.933Z,22.26
2019-05-23T13:44:48.940Z,22.22
2019-05-23T13:47:20.063Z,22.42
2019-05-23T13:49:50.553Z,22.29
2019-05-23T13:52:20.686Z,22.20
2019-05-23T13:54:50.825Z,22.27
2019-05-23T13:57:22.419Z,22.16
2019-05-23T13:59:52.659Z,22.14
2019-05-23T14:02:23.055Z,21.94
2019-05-23T14:04:53.499Z,21.87
2019-05-23T14:07:23.936Z,21.61
2019-05-23T14:09:54.726Z,21.78
2019-05-23T14:12:25.905Z,21.67
2019-05-23T14:14:56.567Z,21.80
2019-05-23T14:17:32.331Z,21.73
2019-05-23T14:20:02.481Z,21.61
2019-05-23T14:22:36.841Z,21.44
2019-05-23T14:25:07.685Z,21.48
2019-05-23T14:27:58.381Z,21.54
2019-05-23T14:31:04.237Z,21.61
2019-05-23T14:33:41.416Z,21.64
2019-05-23T14:36:31.458Z,21.58
2019-05-23T14:39:00.545Z,21.54
2019-05-23T14:41:45.405Z,21.39
2019-05-23T14:44:14.598Z,21.23
2019-05-23T14:47:20.548Z,21.31
2019-05-23T14:49:59.962Z,21.05
2019-05-23T14:52:36.731Z,21.01
2019-05-23T14:55:10.621Z,21.10
2019-05-23T14:57:41.293Z,21.13
2019-05-23T15:00:12.532Z,21.05
2019-05-23T15:02:42.990Z,20.96
2019-05-23T15:05:13.730Z,20.84
2019-05-23T15:07:44.657Z,20.71
2019-05-23T15:10:15.763Z,20.84
2019-05-23T15:12:45.969Z,20.66
2019-05-23T15:15:17.376Z,20.77
2019-05-23T15:17:47.600Z,20.58
2019-05-23T15:20:17.954Z,20.53
2019-05-23T15:22:48.108Z,20.61
2019-05-23T15:25:20.291Z,20.54
2019-05-23T15:27:50.533Z,20.72
2019-05-23T15:30:20.971Z,20.70
2019-05-23T15:32:51.111Z,20.74
2019-05-23T15:35:21.344Z,20.61
2019-05-23T15:37:51.596Z,20.60
2019-05-23T15:40:21.733Z,20.49
2019-05-23T15:42:51.872Z,20.61
2019-05-23T15:45:22.162Z,20.70
2019-05-23T15:47:53.272Z,20.70
2019-05-23T15:50:27.100Z,20.59
2019-05-23T15:53:06.848Z,20.50
2019-05-23T15:55:54.490Z,20.29
2019-05-23T15:58:31.401Z,20.33
2019-05-23T16:01:21.195Z,20.37
2019-05-23T16:03:59.489Z,20.40
2019-05-23T16:06:30.751Z,20.25
2019-05-23T16:09:01.240Z,20.25
2019-05-23T16:11:32.336Z,20.16
2019-05-23T16:14:02.492Z,20.16
2019-05-23T16:16:32.612Z,20.15
2019-05-23T16:19:02.809Z,19.97
2019-05-23T16:21:33.261Z,19.97
2019-05-23T16:24:04.598Z,19.91
2019-05-23T16:26:34.796Z,19.99
2019-05-23T16:29:05.300Z,19.89
2019-05-23T16:31:35.515Z,19.89
2019-05-23T16:34:05.771Z,19.81
2019-05-23T16:36:35.939Z,19.88
2019-05-23T16:39:08.653Z,19.91
2019-05-23T16:41:38.912Z,19.63
2019-05-23T16:44:09.244Z,19.64
2019-05-23T16:46:39.531Z,19.68
2019-05-23T16:49:09.655Z,19.77
2019-05-23T16:51:39.784Z,19.58
2019-05-23T16:54:10.197Z,19.52
2019-05-23T16:56:58.354Z,19.60
2019-05-23T16:59:36.225Z,19.44
2019-05-23T17:02:28.301Z,19.46
2019-05-23T17:05:16.259Z,19.55
2019-05-23T17:08:04.395Z,19.46
2019-05-23T17:10:59.991Z,19.44
2019-05-23T17:13:34.129Z,19.41
2019-05-23T17:16:13.470Z,19.22
2019-05-23T17:19:01.725Z,19.21
2019-05-23T17:21:56.157Z,19.31
2019-05-23T17:24:32.076Z,19.27
2019-05-23T17:27:10.722Z,19.12
2019-05-23T17:29:58.007Z,19.14
2019-05-23T17:32:31.578Z,19.08
2019-05-23T17:35:01.806Z,19.11
2019-05-23T17:37:32.033Z,18.96
2019-05-23T17:40:02.152Z,18.90
2019-05-23T17:42:33.837Z,18.85
2019-05-23T17:45:03.968Z,18.92
2019-05-23T17:47:35.854Z,18.90
2019-05-23T17:50:06.513Z,18.88
2019-05-23T17:52:36.635Z,18.83
2019-05-23T17:55:07.502Z,18.83
2019-05-23T17:57:37.741Z,18.75
2019-05-23T18:00:08.924Z,18.71
2019-05-23T18:02:39.100Z,18.68
2019-05-23T18:05:10.251Z,18.64
2019-05-23T18:07:40.420Z,18.61
2019-05-23T18:10:12.232Z,18.58
2019-05-23T18:12:42.474Z,18.55
2019-05-23T18:15:13.603Z,18.48
2019-05-23T18:17:43.707Z,18.42
2019-05-23T18:20:14.388Z,18.37
2019-05-23T18:22:44.553Z,18.28
2019-05-23T18:25:15.534Z,18.21
2019-05-23T18:27:48.328Z,18.15
2019-05-23T18:30:34.824Z,18.08
2019-05-23T18:33:06.867Z,18.01
2019-05-23T18:35:37.409Z,17.92
2019-05-23T18:38:07.662Z,17.82
2019-05-23T18:40:38.053Z,17.71
2019-05-23T18:43:08.500Z,17.59
2019-05-23T18:45:39.564Z,17.48
2019-05-23T18:48:09.885Z,17.42
2019-05-23T18:50:41.056Z,17.33
2019-05-23T18:53:12.968Z,17.27
2019-05-23T18:55:43.604Z,17.21
2019-05-23T18:58:13.849Z,17.14
2019-05-23T19:01:06.889Z,17.04
2019-05-23T19:03:38.176Z,16.95
2019-05-23T19:06:08.605Z,16.78
2019-05-23T19:08:38.959Z,16.67
2019-05-23T19:11:20.170Z,16.55
2019-05-23T19:13:41.223Z,16.44
2019-05-23T19:16:11.693Z,16.38
2019-05-23T19:18:42.288Z,16.32
2019-05-23T19:21:13.111Z,16.26
2019-05-23T19:23:43.907Z,16.21
2019-05-23T19:26:14.903Z,16.14
2019-05-23T19:28:45.745Z,16.10
2019-05-23T19:31:16.219Z,16.04
2019-05-23T19:33:48.863Z,15.99
2019-05-23T19:36:19.062Z,15.90
2019-05-23T19:38:49.773Z,15.79
2019-05-23T19:41:34.442Z,15.67
2019-05-23T19:43:52.400Z,15.56
2019-05-23T19:46:22.662Z,15.42
2019-05-23T19:48:54.393Z,15.29
2019-05-23T19:51:24.546Z,15.18
2019-05-23T19:53:54.897Z,15.10
2019-05-23T19:56:25.295Z,15.05
2019-05-23T19:58:55.787Z,14.96
2019-05-23T20:01:31.849Z,14.88
2019-05-23T20:03:59.717Z,14.77
2019-05-23T20:06:32.902Z,14.70
2019-05-23T20:09:04.253Z,14.62
2019-05-23T20:11:34.941Z,14.52
2019-05-23T20:14:05.173Z,14.42
2019-05-23T20:16:35.804Z,14.37
2019-05-23T20:19:06.574Z,14.30
2019-05-23T20:21:36.690Z,14.24
2019-05-23T20:24:06.835Z,14.15
2019-05-23T20:26:37.074Z,14.10
2019-05-23T20:29:07.232Z,14.02
2019-05-23T20:31:37.553Z,13.91
2019-05-23T20:34:08.578Z,13.84
2019-05-23T20:36:38.707Z,13.76
2019-05-23T20:39:08.851Z,13.68
2019-05-23T20:41:40.022Z,13.63
2019-05-23T20:44:10.162Z,13.56
2019-05-23T20:46:40.414Z,13.50
2019-05-23T20:49:10.675Z,13.44
2019-05-23T20:51:41.064Z,13.36
2019-05-23T20:54:11.224Z,13.28
2019-05-23T20:56:41.348Z,13.20
2019-05-23T20:59:11.504Z,13.12
2019-05-23T21:01:42.535Z,13.06
2019-05-23T21:04:12.829Z,13.02
2019-05-23T21:06:42.964Z,12.96
2019-05-23T21:09:15.748Z,12.92
2019-05-23T21:11:45.140Z,12.07
2019-05-23T21:14:15.793Z,12.77
2019-05-23T21:16:45.984Z,12.71
2019-05-23T21:19:17.402Z,12.65
2019-05-23T21:21:47.541Z,12.59
2019-05-23T21:24:17.681Z,12.53
2019-05-23T21:26:48.800Z,12.46
2019-05-23T21:29:18.907Z,12.42
2019-05-23T21:31:49.043Z,12.41
2019-05-23T21:34:22.092Z,12.39
2019-05-23T21:36:50.985Z,12.34
2019-05-23T21:39:21.353Z,12.30
2019-05-23T21:41:51.492Z,12.27
2019-05-23T21:44:21.730Z,12.26
2019-05-23T21:46:53.270Z,12.24
2019-05-23T21:49:23.490Z,12.22
2019-05-23T21:51:53.851Z,12.17
2019-05-23T21:54:24.187Z,12.13
2019-05-23T21:56:55.919Z,12.11
2019-05-23T21:59:26.069Z,12.04
2019-05-23T22:02:06.254Z,12.02
2019-05-23T22:04:41.285Z,11.95
2019-05-23T22:07:11.584Z,11.90
2019-05-23T22:09:41.757Z,11.88
2019-05-23T22:12:15.283Z,11.85
2019-05-23T22:14:46.584Z,11.86
2019-05-23T22:17:17.792Z,11.82
2019-05-23T22:19:48.884Z,11.81
2019-05-23T22:22:19.026Z,11.77
2019-05-23T22:24:49.218Z,11.73
2019-05-23T22:27:20.400Z,11.73
2019-05-23T22:29:50.539Z,11.71
2019-05-23T22:32:21.345Z,11.68
2019-05-23T22:34:56.883Z,11.64
2019-05-23T22:37:28.490Z,11.64
2019-05-23T22:39:58.613Z,11.63
2019-05-23T22:42:29.805Z,11.60
2019-05-23T22:44:59.935Z,11.57
2019-05-23T22:47:30.105Z,11.55
2019-05-23T22:50:00.247Z,11.55
2019-05-23T22:52:30.522Z,11.53
2019-05-23T22:55:00.651Z,11.51
2019-05-23T22:57:30.837Z,11.49
2019-05-23T23:00:00.973Z,11.46
2019-05-23T23:02:31.207Z,11.43
2019-05-23T23:05:01.355Z,11.41
2019-05-23T23:07:32.960Z,11.38
2019-05-23T23:10:03.046Z,11.35
2019-05-23T23:12:33.274Z,11.34
2019-05-23T23:15:03.422Z,11.32
2019-05-23T23:17:33.614Z,11.30
2019-05-23T23:20:04.000Z,11.29
2019-05-23T23:22:34.125Z,11.33
2019-05-23T23:25:04.471Z,11.27
2019-05-23T23:27:34.695Z,11.22
2019-05-23T23:30:05.540Z,11.22
2019-05-23T23:32:35.676Z,11.19
2019-05-23T23:35:06.067Z,11.19
2019-05-23T23:37:36.203Z,11.17
2019-05-23T23:40:07.087Z,11.15
2019-05-23T23:42:37.201Z,11.13
2019-05-23T23:45:25.717Z,11.11
2019-05-23T23:48:13.689Z,11.10
2019-05-23T23:51:01.481Z,11.09
2019-05-23T23:53:49.486Z,11.07
2019-05-23T23:56:37.336Z,11.05
2019-05-23T23:59:06.523Z,10.98
